Captiva, Florida
Current Conditions -  °F | °C
As of 11:53 AM on Friday 31 Oct 2014 (Local Time) from KFMY Reporting Station
Few Clouds Few Clouds  
Wind Chill: 79°   Ceiling: Unl
Heat Index: 81°   Visibility: 10mi
Dew Point: 66°   Wind: 9mph
Humidity: 64%   Direction: 350°N
Pressure: 29.87"   Gusts: NA
Location:  26.52°N, 82.19°W
Report Text: KFMY 311553Z 35008KT 10SM FEW024 26/19 A2987 RMK AO2 SLP115 T02610189
Loading
Personal Weather Stations






























Interactive Weather Map
Tropical Storm Tracking
New forecast layout! Learn more

10-Day Weather Forecast

Advertisements
Track Severe Weather on mobile